Time;durP1;ratioP1;P1;durP2;ratioP2;P2;SDS_P1;SDS_P2;PMS_P1;PMS_P2;Temp;Humidity;BMP_temperature;BMP_pressure;BME280_temperature;BME280_humidity;BME280_pressure;Samples;Min_cycle;Max_cycle;Signal;HPM_P1;HPM_P2
2022/05/30 00:01:28;;;;;;;5.27;4.87;;;5.90;99.90;;;6.53;100.00;97405.44;5121506;28;20212;-61
2022/05/30 00:04:03;;;;;;;4.80;4.60;;;6.00;99.90;;;6.44;100.00;97399.75;5123267;28;20193;-60
2022/05/30 00:06:37;;;;;;;4.20;3.97;;;5.80;99.90;;;6.42;100.00;97406.41;5118952;28;20232;-60
2022/05/30 00:09:13;;;;;;;4.37;4.10;;;5.70;99.90;;;6.25;100.00;97398.56;5124384;28;20609;-60
2022/05/30 00:11:48;;;;;;;4.77;4.47;;;5.60;99.90;;;6.38;100.00;97399.34;5117548;28;20208;-60
2022/05/30 00:14:21;;;;;;;4.70;4.30;;;5.70;99.90;;;6.39;100.00;97398.59;5124130;28;20269;-59
2022/05/30 00:16:54;;;;;;;4.63;4.33;;;5.70;99.90;;;6.40;100.00;97392.72;5122664;28;20670;-60
2022/05/30 00:19:28;;;;;;;4.80;4.50;;;5.80;99.90;;;6.31;100.00;97396.41;5125705;28;20204;-60
2022/05/30 00:22:02;;;;;;;5.20;4.90;;;5.60;99.90;;;6.34;100.00;97392.31;5122414;28;20615;-60
2022/05/30 00:24:35;;;;;;;4.70;4.40;;;5.70;99.90;;;6.15;100.00;97391.09;5121114;28;20343;-60
2022/05/30 00:27:08;;;;;;;4.87;4.57;;;5.50;99.90;;;6.09;100.00;97390.69;5124951;28;20260;-59
2022/05/30 00:29:41;;;;;;;5.07;4.77;;;5.30;99.90;;;6.03;100.00;97387.75;5153141;28;20205;-60
2022/05/30 00:32:14;;;;;;;4.87;4.50;;;5.40;99.90;;;6.08;100.00;97386.41;5119513;28;20693;-59
2022/05/30 00:34:49;;;;;;;5.60;5.20;;;5.50;99.90;;;6.17;100.00;97384.47;5115477;28;20239;-59
2022/05/30 00:37:22;;;;;;;5.83;5.27;;;5.60;99.90;;;6.21;100.00;97381.38;5119066;28;20278;-58
2022/05/30 00:39:55;;;;;;;5.53;5.03;;;5.60;99.90;;;6.22;100.00;97378.06;5120897;28;20200;-59
2022/05/30 00:42:29;;;;;;;5.30;5.00;;;5.50;99.90;;;6.22;100.00;97375.50;5118861;28;20351;-58
2022/05/30 00:45:02;;;;;;;5.17;4.77;;;5.50;99.90;;;6.19;100.00;97375.31;5118060;28;20231;-59
2022/05/30 00:47:36;;;;;;;5.80;5.30;;;5.50;99.90;;;6.05;100.00;97369.31;5120238;28;20297;-58
2022/05/30 00:50:12;;;;;;;5.80;5.40;;;5.40;99.90;;;6.12;100.00;97369.72;5121903;28;20232;-59
2022/05/30 00:52:46;;;;;;;5.33;4.90;;;5.50;99.90;;;6.13;100.00;97359.69;5119409;28;20614;-59
2022/05/30 00:55:22;;;;;;;4.93;4.63;;;5.60;99.90;;;6.16;100.00;97364.09;5116907;28;20671;-58
2022/05/30 00:57:56;;;;;;;5.30;5.00;;;5.50;99.90;;;6.09;100.00;97361.16;5118827;28;20274;-59
2022/05/30 01:00:29;;;;;;;4.77;4.40;;;5.50;99.90;;;6.10;100.00;97362.03;5115184;28;20615;-60
2022/05/30 01:08:45;;;;;;;5.07;4.77;;;5.40;99.90;;;5.90;100.00;97357.28;5119631;28;20243;-58
2022/05/30 01:11:18;;;;;;;4.57;4.17;;;5.30;99.90;;;5.93;100.00;97357.47;5116896;28;20265;-59
2022/05/30 01:13:51;;;;;;;4.83;4.53;;;5.30;99.90;;;5.92;100.00;97351.50;5112828;28;20217;-58
2022/05/30 01:16:24;;;;;;;4.60;4.40;;;5.10;99.90;;;5.92;100.00;97353.16;5121656;28;20285;-60
2022/05/30 01:19:01;;;;;;;5.13;4.73;;;5.20;99.90;;;5.92;100.00;97354.03;5119319;28;20208;-58
2022/05/30 01:21:52;;;;;;;4.93;4.40;;;5.20;99.90;;;5.95;100.00;97345.78;5119957;28;20197;-59
2022/05/30 01:24:39;;;;;;;5.10;4.80;;;5.30;99.90;;;5.99;100.00;97346.09;5119562;28;20232;-59
2022/05/30 01:27:32;;;;;;;5.17;4.77;;;5.30;99.90;;;5.99;100.00;97347.75;5119942;28;20270;-58
2022/05/30 01:30:12;;;;;;;5.80;5.30;;;5.40;99.90;;;5.88;100.00;97345.34;5122986;28;20209;-59
2022/05/30 01:32:45;;;;;;;4.90;4.60;;;5.30;99.90;;;5.69;100.00;97344.88;5119622;28;20678;-59
2022/05/30 01:35:24;;;;;;;5.20;4.80;;;5.10;99.90;;;5.64;100.00;97329.38;5118585;28;20241;-59
2022/05/30 01:37:58;;;;;;;4.90;4.60;;;5.00;99.90;;;5.71;100.00;97320.53;5117868;28;20388;-59
2022/05/30 01:40:31;;;;;;;5.17;4.73;;;5.00;99.90;;;5.77;100.00;97322.59;5121429;28;20643;-58
2022/05/30 01:43:04;;;;;;;5.87;5.30;;;5.10;99.90;;;5.79;100.00;97321.03;5118712;28;20246;-59
2022/05/30 01:45:39;;;;;;;5.67;4.87;;;5.10;99.90;;;5.78;100.00;97322.72;5128995;28;20679;-59
2022/05/30 01:48:12;;;;;;;5.30;5.00;;;5.20;99.90;;;5.81;100.00;97322.03;5118340;28;20228;-59
2022/05/30 01:50:46;;;;;;;5.17;4.87;;;5.20;99.90;;;5.81;100.00;97316.97;5111451;28;20603;-59
2022/05/30 01:53:19;;;;;;;5.47;4.97;;;5.20;99.90;;;5.90;100.00;97321.75;5120196;28;20223;-59
2022/05/30 01:55:52;;;;;;;5.07;4.77;;;5.10;99.90;;;5.84;100.00;97310.44;5148456;28;20198;-59
2022/05/30 01:58:25;;;;;;;5.30;4.90;;;5.10;99.90;;;5.76;100.00;97303.09;5144420;28;20271;-59
2022/05/30 02:01:00;;;;;;;4.70;4.40;;;5.10;99.90;;;5.75;100.00;97314.91;5134293;28;20260;-59
2022/05/30 02:03:34;;;;;;;4.70;4.40;;;5.00;99.90;;;5.66;100.00;97311.72;5113467;28;20730;-58
2022/05/30 02:06:07;;;;;;;5.33;4.73;;;5.00;99.90;;;5.54;100.00;97308.38;5112184;28;20264;-59
2022/05/30 02:08:40;;;;;;;4.57;4.37;;;4.90;99.90;;;5.54;100.00;97303.31;5111693;28;20245;-59
2022/05/30 02:11:14;;;;;;;6.43;5.27;;;4.80;99.90;;;5.59;100.00;97299.44;5119146;28;20236;-57
2022/05/30 02:13:47;;;;;;;4.40;4.10;;;4.90;99.90;;;5.50;100.00;97308.97;5139309;28;20285;-59
2022/05/30 02:19:12;;;;;;;4.27;4.03;;;4.80;99.90;;;5.34;100.00;97299.44;5114219;28;20232;-59
2022/05/30 02:21:46;;;;;;;4.93;4.50;;;4.70;99.90;;;5.27;100.00;97304.88;5118743;28;20228;-58
2022/05/30 02:24:19;;;;;;;4.93;4.63;;;4.60;99.90;;;5.34;100.00;97299.44;5116723;28;20676;-58
2022/05/30 02:26:52;;;;;;;5.97;5.50;;;4.70;99.90;;;5.37;100.00;97308.09;5131152;28;20266;-58
2022/05/30 02:29:26;;;;;;;5.63;5.27;;;4.80;99.90;;;5.38;100.00;97298.88;5136416;28;20230;-59
2022/05/30 02:32:00;;;;;;;6.37;5.87;;;4.80;99.90;;;5.48;100.00;97292.75;5123702;28;20240;-60
2022/05/30 02:37:24;;;;;;;6.47;5.97;;;4.70;99.90;;;5.46;100.00;97296.84;5122036;28;20289;-61
2022/05/30 02:39:57;;;;;;;5.53;5.13;;;4.80;99.90;;;5.41;100.00;97294.88;5135494;28;20238;-60
2022/05/30 02:42:31;;;;;;;5.67;5.30;;;4.80;99.90;;;5.39;100.00;97291.38;5122716;28;20199;-60
2022/05/30 02:45:05;;;;;;;6.23;5.80;;;4.90;99.90;;;5.40;100.00;97293.09;5121602;28;20245;-59
2022/05/30 02:47:39;;;;;;;5.30;4.80;;;4.90;99.90;;;5.38;100.00;97294.69;5139391;28;20260;-60
2022/05/30 02:50:12;;;;;;;5.27;4.97;;;4.80;99.90;;;5.28;100.00;97292.28;5116722;28;20315;-59
2022/05/30 02:52:45;;;;;;;5.37;5.07;;;4.70;99.90;;;5.31;100.00;97295.03;5114743;28;20197;-60
2022/05/30 02:55:19;;;;;;;5.57;5.10;;;4.70;99.90;;;5.34;100.00;97302.84;5121710;28;20659;-60
2022/05/30 02:57:52;;;;;;;5.10;4.70;;;4.70;99.90;;;5.35;100.00;97306.25;5120550;28;20251;-59
2022/05/30 03:00:26;;;;;;;6.17;5.77;;;4.70;99.90;;;5.36;100.00;97310.56;5123722;28;20233;-60
2022/05/30 03:03:01;;;;;;;6.00;5.50;;;4.80;99.90;;;5.35;100.00;97309.69;5125230;28;20663;-60
2022/05/30 03:05:34;;;;;;;5.63;5.23;;;4.80;99.90;;;5.32;100.00;97312.00;5121891;28;20203;-59
2022/05/30 03:08:09;;;;;;;5.27;4.97;;;4.70;99.90;;;5.32;100.00;97308.56;5125901;28;20352;-60
2022/05/30 03:10:42;;;;;;;5.77;5.37;;;4.70;99.90;;;5.29;100.00;97310.91;5117047;28;20276;-60
2022/05/30 03:13:15;;;;;;;5.73;5.13;;;4.70;99.90;;;5.26;100.00;97309.03;5129645;28;20252;-60
2022/05/30 03:15:49;;;;;;;6.10;5.70;;;4.70;99.90;;;5.23;100.00;97308.81;5122277;28;20265;-60
2022/05/30 03:18:23;;;;;;;5.20;4.70;;;4.70;99.90;;;5.22;100.00;97317.22;5119872;28;20226;-60
2022/05/30 03:20:57;;;;;;;5.43;4.93;;;4.60;99.90;;;5.20;100.00;97324.69;5114727;28;20656;-60
2022/05/30 03:23:30;;;;;;;5.37;4.97;;;4.50;99.90;;;5.15;100.00;97327.69;5116228;28;20233;-59
2022/05/30 03:26:03;;;;;;;5.40;5.07;;;4.50;99.90;;;5.14;100.00;97328.47;5120033;28;20692;-60
2022/05/30 03:28:38;;;;;;;6.07;5.57;;;4.60;99.90;;;5.17;100.00;97333.75;5117274;28;20205;-59
2022/05/30 03:31:11;;;;;;;5.20;4.90;;;4.50;99.90;;;5.12;100.00;97340.13;5122113;28;20201;-61
2022/05/30 03:33:46;;;;;;;5.10;4.80;;;4.40;99.90;;;4.97;100.00;97338.28;5120664;28;20252;-60
2022/05/30 03:36:25;;;;;;;5.60;5.20;;;4.40;99.90;;;4.99;100.00;97340.06;5119810;28;20234;-60
2022/05/30 03:38:58;;;;;;;5.80;5.40;;;4.30;99.90;;;4.99;100.00;97342.59;5120798;28;20205;-60
2022/05/30 03:41:31;;;;;;;4.57;4.27;;;4.40;99.90;;;5.01;100.00;97346.09;5159977;28;20228;-60
2022/05/30 03:44:05;;;;;;;4.90;4.60;;;4.40;99.90;;;5.04;100.00;97343.81;5124853;28;20208;-60
2022/05/30 03:46:38;;;;;;;5.50;5.13;;;4.40;99.90;;;5.04;100.00;97343.81;5126781;28;20744;-60
2022/05/30 03:49:12;;;;;;;5.07;4.70;;;4.40;99.90;;;4.91;100.00;97350.53;5121979;28;20685;-60
2022/05/30 03:51:45;;;;;;;4.87;4.63;;;4.30;99.90;;;4.97;100.00;97350.97;5143439;28;20233;-60
2022/05/30 03:54:19;;;;;;;5.60;5.20;;;4.30;99.90;;;5.02;100.00;97350.41;5154608;28;20198;-60
2022/05/30 03:56:52;;;;;;;5.40;5.03;;;4.50;99.90;;;5.08;100.00;97350.84;5155087;28;20224;-60
2022/05/30 03:59:25;;;;;;;5.73;5.23;;;4.50;99.90;;;5.14;100.00;97348.72;5128810;28;20194;-60
2022/05/30 04:02:05;;;;;;;5.60;5.10;;;4.50;99.90;;;5.11;100.00;97358.66;5124012;28;20198;-60
2022/05/30 04:04:39;;;;;;;5.97;5.47;;;4.50;99.90;;;5.05;100.00;97355.69;5120615;28;20247;-60
2022/05/30 04:07:12;;;;;;;6.10;5.50;;;4.40;99.90;;;5.11;100.00;97359.53;5134061;28;20263;-60
2022/05/30 04:09:45;;;;;;;5.43;5.03;;;4.50;99.90;;;5.09;100.00;97360.19;5122325;28;20233;-59
2022/05/30 04:12:21;;;;;;;5.10;4.80;;;4.50;99.90;;;5.16;100.00;97352.25;5142373;28;20232;-60
2022/05/30 04:14:54;;;;;;;4.77;4.47;;;4.50;99.90;;;5.11;100.00;97357.00;5130155;28;20247;-60
2022/05/30 04:17:29;;;;;;;4.80;4.50;;;4.40;99.90;;;5.06;100.00;97359.97;5137748;28;20679;-60
2022/05/30 04:20:05;;;;;;;4.57;4.27;;;4.30;99.90;;;5.13;100.00;97360.53;5154274;28;20249;-60
2022/05/30 04:22:38;;;;;;;4.70;4.40;;;4.50;99.90;;;5.01;100.00;97364.75;5124536;28;20211;-60
2022/05/30 04:25:12;;;;;;;4.60;4.40;;;4.30;99.90;;;4.99;100.00;97367.94;5127688;28;20205;-60
2022/05/30 04:27:45;;;;;;;4.80;4.40;;;4.40;99.90;;;5.00;100.00;97369.69;5133362;28;20265;-59
2022/05/30 04:30:18;;;;;;;5.10;4.80;;;4.30;99.90;;;5.08;100.00;97368.56;5124467;28;20267;-59
2022/05/30 04:32:52;;;;;;;5.10;4.70;;;4.30;99.90;;;5.02;100.00;97370.69;5118760;28;20233;-59
2022/05/30 04:35:26;;;;;;;5.00;4.60;;;4.40;99.90;;;5.03;100.00;97373.28;5122738;28;20659;-60
2022/05/30 04:38:00;;;;;;;5.03;4.63;;;4.30;99.90;;;5.16;100.00;97370.00;5115600;28;20740;-60
2022/05/30 04:40:33;;;;;;;4.90;4.60;;;4.50;99.90;;;5.33;100.00;97364.44;5115012;28;20254;-58
2022/05/30 04:43:06;;;;;;;4.57;4.17;;;4.70;99.90;;;5.54;100.00;97371.75;5115612;28;20300;-60
2022/05/30 04:45:39;;;;;;;5.57;5.17;;;4.90;99.90;;;5.62;100.00;97360.47;5118733;28;20676;-59
2022/05/30 04:48:12;;;;;;;5.50;5.10;;;4.90;99.90;;;5.69;99.86;97364.28;5119883;28;20324;-60
2022/05/30 04:50:46;;;;;;;5.57;5.27;;;5.00;99.90;;;5.82;99.07;97366.88;5115521;28;20698;-59
2022/05/30 04:53:20;;;;;;;5.17;4.87;;;5.10;99.90;;;6.00;98.49;97365.59;5122239;28;20719;-59
2022/05/30 04:55:53;;;;;;;4.93;4.53;;;5.20;99.90;;;6.42;96.78;97363.25;5120550;28;20223;-60
2022/05/30 04:58:28;;;;;;;4.63;4.37;;;5.80;99.90;;;7.15;97.47;97364.47;5130998;28;20248;-60
2022/05/30 05:01:04;;;;;;;4.10;3.80;;;6.50;99.90;;;7.49;89.28;97356.38;5125608;28;20278;-60
2022/05/30 05:03:39;;;;;;;4.33;4.03;;;6.90;99.90;;;8.35;89.26;97359.78;5121365;28;20200;-60
2022/05/30 05:06:16;;;;;;;3.97;3.77;;;7.50;99.90;;;9.07;85.69;97357.84;5120175;28;20200;-54
2022/05/30 05:08:56;;;;;;;4.23;3.93;;;7.90;99.90;;;9.50;81.79;97353.41;5122726;28;20236;-54
2022/05/30 05:11:31;;;;;;;4.03;3.73;;;8.20;99.90;;;9.85;77.61;97360.34;5133864;28;20763;-53
2022/05/30 05:14:05;;;;;;;4.50;4.30;;;8.30;99.90;;;9.84;74.44;97363.72;5122246;28;20239;-53
2022/05/30 05:16:39;;;;;;;3.87;3.67;;;8.40;99.90;;;9.65;77.10;97358.44;5142304;28;20314;-57
2022/05/30 05:19:12;;;;;;;4.30;4.10;;;8.50;99.90;;;10.33;77.04;97366.22;5123606;28;20647;-53
2022/05/30 05:21:47;;;;;;;3.87;3.50;;;8.90;99.90;;;10.42;75.80;97363.25;5126225;28;20966;-55
2022/05/30 05:24:20;;;;;;;4.60;3.67;;;9.20;99.90;;;10.90;73.48;97368.09;5129026;28;20242;-56
2022/05/30 05:26:53;;;;;;;3.43;3.20;;;9.50;99.90;;;11.16;73.76;97365.09;5138347;28;20274;-57
2022/05/30 05:29:26;;;;;;;3.47;3.27;;;9.50;99.90;;;11.38;72.51;97359.28;5147778;28;20208;-56
2022/05/30 05:32:01;;;;;;;3.33;3.13;;;9.80;99.90;;;11.73;71.82;97359.97;5157929;28;20409;-56
2022/05/30 05:34:35;;;;;;;6.38;3.45;;;10.10;99.90;;;11.89;70.24;97365.00;5124654;28;20204;-57
2022/05/30 05:37:09;;;;;;;3.90;3.50;;;10.10;99.90;;;12.40;70.36;97357.78;5117334;28;20220;-57
2022/05/30 05:39:42;;;;;;;3.50;3.20;;;10.60;99.90;;;12.57;67.39;97361.06;5135978;28;20277;-58
2022/05/30 05:42:15;;;;;;;3.38;3.08;;;10.90;99.90;;;12.87;66.88;97360.53;5120097;28;20209;-55
2022/05/30 05:44:48;;;;;;;3.15;2.95;;;11.00;99.90;;;12.61;67.13;97362.91;5143790;28;20243;-56
2022/05/30 05:47:22;;;;;;;3.25;3.05;;;11.00;99.90;;;12.54;68.40;97368.63;5119516;28;20664;-57
2022/05/30 05:50:00;;;;;;;3.20;2.90;;;10.80;99.90;;;13.05;67.51;97365.53;5136944;28;20244;-56
2022/05/30 05:52:34;;;;;;;3.20;3.00;;;11.10;99.90;;;13.24;66.82;97367.13;5119312;28;20286;-56
2022/05/30 05:55:09;;;;;;;3.25;2.95;;;11.20;99.90;;;13.36;64.06;97371.88;5175658;28;20197;-58
2022/05/30 05:57:42;;;;;;;3.53;3.22;;;11.30;99.90;;;13.84;63.93;97371.97;5121867;28;20252;-57
2022/05/30 06:00:17;;;;;;;4.47;3.38;;;11.60;99.90;;;13.84;62.70;97370.25;5145334;28;20205;-58
2022/05/30 06:02:50;;;;;;;3.28;3.08;;;11.80;99.90;;;13.97;62.06;97374.16;5138579;28;20670;-58
2022/05/30 06:05:23;;;;;;;3.60;3.30;;;11.80;99.90;;;14.20;60.93;97368.13;5122080;28;20207;-58
2022/05/30 06:08:00;;;;;;;3.47;3.20;;;11.90;99.90;;;14.64;61.28;97375.63;5134771;28;20256;-58
2022/05/30 06:11:04;;;;;;;3.38;3.10;;;12.00;99.90;;;14.76;59.61;97376.03;5126508;28;20227;-59
2022/05/30 06:13:27;;;;;;;3.35;3.05;;;12.20;99.90;;;15.10;58.47;97375.41;5161835;28;20208;-58
2022/05/30 06:16:00;;;;;;;3.30;3.08;;;12.30;99.90;;;15.27;57.59;97365.63;5120864;28;20231;-57
2022/05/30 06:18:34;;;;;;;3.78;3.10;;;12.50;99.90;;;15.63;57.32;97364.13;5117115;28;20268;-59
2022/05/30 06:21:07;;;;;;;3.47;3.28;;;12.70;99.90;;;15.93;57.00;97372.75;5121830;28;20662;-58
2022/05/30 06:23:44;;;;;;;3.55;3.25;;;13.10;99.90;;;16.17;56.86;97374.28;5115186;28;20238;-59
2022/05/30 06:26:17;;;;;;;3.88;3.35;;;13.30;99.90;;;16.02;55.82;97374.72;5117926;28;20261;-58
2022/05/30 06:28:51;;;;;;;4.15;3.35;;;13.50;99.90;;;16.26;54.63;97379.69;5139548;28;20208;-58
2022/05/30 06:31:27;;;;;;;5.25;3.60;;;13.70;99.90;;;16.72;53.89;97377.44;5172862;28;20213;-58
2022/05/30 06:34:02;;;;;;;3.70;3.40;;;13.90;99.90;;;17.01;52.77;97373.00;5157658;28;20228;-59
2022/05/30 06:36:36;;;;;;;3.15;2.88;;;14.20;99.90;;;17.02;52.86;97373.03;5147850;28;20220;-58
2022/05/30 06:39:11;;;;;;;2.97;2.78;;;14.30;99.90;;;17.56;53.78;97375.13;5180000;28;20262;-58
2022/05/30 06:41:45;;;;;;;3.30;3.00;;;15.00;99.90;;;17.92;53.13;97373.34;5157171;28;20196;-56
2022/05/30 06:44:18;;;;;;;3.35;2.97;;;15.20;99.90;;;18.01;53.24;97365.75;5116137;28;20321;-58
2022/05/30 06:46:51;;;;;;;3.33;2.83;;;15.30;99.90;;;18.44;51.09;97364.84;5158284;28;20232;-58
2022/05/30 06:49:24;;;;;;;3.17;2.97;;;15.60;99.90;;;18.79;50.07;97367.19;5144611;28;20266;-57
2022/05/30 06:51:58;;;;;;;4.00;2.88;;;15.90;99.90;;;18.55;48.67;97379.69;5151584;28;20252;-57
2022/05/30 06:54:32;;;;;;;5.85;3.13;;;16.00;98.30;;;19.10;48.35;97373.75;5172814;28;20632;-58
2022/05/30 06:59:57;;;;;;;2.80;2.60;;;16.70;97.50;;;19.55;47.83;97377.00;5113425;28;20902;-57
2022/05/30 07:02:30;;;;;;;2.38;2.17;;;17.00;97.70;;;19.40;44.23;97379.38;5165888;28;20711;-58
2022/05/30 07:05:04;;;;;;;2.60;2.40;;;16.80;94.50;;;19.28;46.13;97383.50;5161470;28;20209;-59
2022/05/30 07:07:39;;;;;;;2.95;2.45;;;16.70;95.80;;;19.52;45.76;97377.84;5121333;28;20254;-58
2022/05/30 07:10:14;;;;;;;2.50;2.30;;;16.90;95.70;;;19.69;46.49;97385.88;5159965;28;20254;-57
2022/05/30 07:12:47;;;;;;;2.30;2.20;;;17.20;96.10;;;19.89;43.02;97377.50;5159928;28;20688;-58
2022/05/30 07:15:20;;;;;;;2.40;2.20;;;17.30;93.00;;;19.98;44.66;97385.38;5123438;28;20291;-58
2022/05/30 07:17:57;;;;;;;2.55;2.30;;;17.40;94.30;;;20.21;43.17;97385.66;5144965;28;20243;-58
2022/05/30 07:20:31;;;;;;;2.28;2.03;;;17.60;92.70;;;20.50;41.44;97388.56;5169694;28;20673;-57
2022/05/30 07:23:04;;;;;;;2.50;2.30;;;17.90;91.90;;;20.66;41.88;97384.41;5157708;28;20605;-57
2022/05/30 07:25:40;;;;;;;3.35;2.03;;;17.90;91.50;;;20.48;42.20;97382.47;5161266;28;20197;-57
2022/05/30 07:28:13;;;;;;;3.33;2.30;;;17.90;92.40;;;20.50;41.89;97398.94;5152674;28;20274;-56
2022/05/30 07:30:46;;;;;;;2.53;2.33;;;18.10;91.80;;;20.76;41.37;97387.97;5115147;28;20201;-58
2022/05/30 07:33:19;;;;;;;3.63;2.47;;;18.10;91.30;;;20.65;42.39;97386.13;5125665;28;20258;-57
2022/05/30 07:35:52;;;;;;;2.40;2.20;;;18.10;92.20;;;21.23;41.65;97384.88;5183334;28;20283;-57
2022/05/30 07:38:26;;;;;;;2.38;2.17;;;18.50;91.30;;;20.89;41.38;97387.25;5169283;28;20260;-58
2022/05/30 07:41:01;;;;;;;2.42;2.17;;;18.50;91.10;;;21.02;41.48;97383.88;5165639;28;20217;-58
2022/05/30 07:43:34;;;;;;;3.25;2.38;;;18.40;91.50;;;21.17;41.68;97382.25;5135979;28;20250;-59
2022/05/30 07:46:11;;;;;;;3.17;2.15;;;18.50;91.70;;;21.56;39.96;97379.94;5115797;28;20218;-57
2022/05/30 07:48:44;;;;;;;2.70;2.17;;;18.90;90.30;;;21.57;39.73;97380.81;5165594;28;20207;-57
2022/05/30 07:51:18;;;;;;;2.70;1.92;;;19.10;89.90;;;21.66;40.45;97372.19;5119987;28;20350;-58
2022/05/30 07:53:51;;;;;;;2.20;1.80;;;19.00;90.30;;;22.02;39.25;97382.78;5148973;28;20244;-58
2022/05/30 07:56:26;;;;;;;2.53;2.10;;;19.60;88.70;;;22.53;38.16;97376.91;5156717;28;20299;-56
2022/05/30 07:58:59;;;;;;;2.33;1.92;;;20.00;86.90;;;22.73;35.85;97385.63;5157640;28;20200;-57
2022/05/30 08:01:33;;;;;;;2.22;2.03;;;20.20;83.70;;;22.78;37.41;97381.28;5137806;28;20233;-58
2022/05/30 08:04:12;;;;;;;2.30;2.10;;;20.10;86.40;;;23.02;37.47;97379.59;5152226;28;20192;-58
2022/05/30 08:06:45;;;;;;;2.67;2.22;;;20.10;86.70;;;22.27;39.12;97378.56;5157461;28;20254;-57
2022/05/30 08:09:18;;;;;;;2.00;1.80;;;19.90;87.00;;;22.71;37.85;97376.91;5196752;28;20189;-58
2022/05/30 08:11:53;;;;;;;3.28;2.35;;;20.10;86.50;;;22.65;37.07;97374.31;5167252;28;20228;-56
2022/05/30 08:14:26;;;;;;;2.97;2.10;;;20.00;84.80;;;22.35;37.00;97381.19;5177668;28;20241;-56
2022/05/30 08:17:00;;;;;;;2.75;1.80;;;19.90;83.10;;;22.33;37.01;97377.72;5121150;28;20692;-57
2022/05/30 08:19:34;;;;;;;3.13;2.25;;;20.00;83.70;;;22.19;36.83;97369.00;5162942;28;20196;-57
2022/05/30 08:22:22;;;;;;;2.38;1.90;;;20.00;82.40;;;22.05;35.95;97377.56;5186167;28;20224;-58
2022/05/30 08:24:55;;;;;;;2.30;1.98;;;20.10;80.10;;;22.26;36.84;97375.94;5164778;28;20200;-55
2022/05/30 08:27:31;;;;;;;3.25;2.22;;;20.50;81.20;;;22.22;36.88;97369.00;5148539;28;20701;-57
2022/05/30 08:30:05;;;;;;;2.67;1.90;;;20.60;80.50;;;21.89;37.40;97368.00;5148840;28;20561;-55
2022/05/30 08:32:41;;;;;;;2.33;2.13;;;20.30;81.10;;;21.54;38.20;97366.06;5138840;28;20221;-57
2022/05/30 08:35:19;;;;;;;3.33;1.88;;;20.30;81.90;;;21.22;40.24;97364.97;5133731;28;20200;-57
2022/05/30 08:37:57;;;;;;;1.90;1.67;;;20.00;83.60;;;21.66;37.39;97365.28;5120628;29;20316;-57
2022/05/30 08:43:29;;;;;;;2.55;1.80;;;20.60;77.80;;;21.84;36.28;97367.09;5172769;28;20243;-57
2022/05/30 08:46:10;;;;;;;2.88;1.63;;;20.50;78.30;;;21.94;36.83;97361.03;5180104;28;20283;-56
2022/05/30 08:48:46;;;;;;;2.25;2.00;;;20.70;79.00;;;22.11;35.91;97357.66;5129493;28;20635;-55
2022/05/30 08:51:54;;;;;;;2.55;2.10;;;20.70;77.80;;;22.25;34.77;97358.59;5160124;28;20193;-56
2022/05/30 08:54:39;;;;;;;2.47;1.88;;;20.80;74.90;;;21.77;34.52;97365.31;5166912;28;20239;-57
2022/05/30 08:57:26;;;;;;;1.85;1.65;;;20.40;74.70;;;21.84;36.28;97359.28;5164239;28;20597;-52
2022/05/30 09:00:11;;;;;;;2.03;1.83;;;20.50;77.50;;;21.88;34.84;97368.84;5170135;28;20276;-57
2022/05/30 09:02:49;;;;;;;2.15;1.95;;;20.50;74.20;;;21.96;34.13;97361.94;5157155;28;20205;-56
2022/05/30 09:05:29;;;;;;;1.90;1.73;;;20.80;73.10;;;21.82;35.97;97359.28;5121447;28;20235;-55
2022/05/30 09:08:27;;;;;;;2.22;2.00;;;20.60;76.70;;;21.99;34.16;97356.75;5166051;28;20225;-55
2022/05/30 09:11:04;;;;;;;3.10;1.88;;;20.80;73.10;;;21.89;34.07;97365.38;5164956;28;20255;-57
2022/05/30 09:13:43;;;;;;;1.70;1.60;;;20.90;72.60;;;22.17;35.03;97365.47;5181025;28;20281;-55
2022/05/30 09:16:32;;;;;;;2.75;1.77;;;21.10;73.60;;;22.07;34.11;97368.94;5173219;28;20278;-54
2022/05/30 09:19:11;;;;;;;1.92;1.70;;;20.60;73.40;;;22.09;34.87;97357.66;5173288;28;20239;-57
2022/05/30 09:21:44;;;;;;;3.40;2.00;;;20.90;73.80;;;22.10;34.70;97358.53;5180645;28;20232;-55
2022/05/30 09:24:17;;;;;;;2.30;1.80;;;21.10;73.60;;;22.15;34.54;97362.88;5168827;28;20233;-58
2022/05/30 09:26:50;;;;;;;1.88;1.67;;;21.10;72.80;;;21.76;35.40;97358.38;5163471;28;20228;-55
2022/05/30 09:29:29;;;;;;;2.55;1.73;;;20.60;74.50;;;21.74;35.05;97355.75;5194274;28;20197;-56
2022/05/30 09:32:14;;;;;;;2.33;1.80;;;20.50;73.80;;;21.43;33.87;97349.50;5157637;28;20223;-55
2022/05/30 09:34:51;;;;;;;3.03;1.60;;;20.20;71.80;;;21.49;34.61;97359.97;5121133;28;20244;-55
2022/05/30 09:37:28;;;;;;;2.55;1.90;;;20.40;73.40;;;21.52;34.14;97354.78;5165144;28;20279;-52
2022/05/30 09:40:01;;;;;;;2.38;1.80;;;20.60;71.60;;;21.57;33.64;97353.06;5184683;28;20236;-53
2022/05/30 09:42:38;;;;;;;2.78;1.67;;;20.70;70.70;;;21.75;33.79;97352.31;5173598;28;20611;-56
2022/05/30 09:45:14;;;;;;;3.00;1.80;;;20.80;72.00;;;21.64;33.60;97358.31;5167605;28;20207;-57
2022/05/30 09:48:01;;;;;;;1.73;1.58;;;20.70;71.00;;;21.83;34.78;97357.53;5115428;28;20255;-57
2022/05/30 09:50:44;;;;;;;2.17;1.67;;;20.60;73.00;;;21.93;35.06;97348.91;5120563;29;20292;-57
2022/05/30 09:53:42;;;;;;;2.50;1.85;;;20.70;73.70;;;22.10;34.30;97354.19;5119951;28;20213;-57
2022/05/30 09:56:19;;;;;;;1.60;1.50;;;20.90;72.20;;;21.89;34.38;97359.28;5117698;28;20196;-56
2022/05/30 09:59:03;;;;;;;1.45;1.35;;;20.80;72.40;;;22.17;32.58;97355.06;5143246;28;20185;-56
2022/05/30 10:01:38;;;;;;;1.52;1.40;;;21.10;69.10;;;21.84;31.85;97356.69;5176673;28;20240;-56
2022/05/30 10:04:21;;;;;;;1.90;1.80;;;21.00;67.40;;;21.67;32.20;97358.34;5153389;28;20733;-56
2022/05/30 10:07:11;;;;;;;2.70;1.50;;;20.60;69.60;;;21.23;32.75;97357.19;5119809;28;20229;-56
2022/05/30 10:09:55;;;;;;;2.22;1.52;;;20.20;68.70;;;21.05;32.34;97357.03;5124983;28;20684;-57
2022/05/30 10:12:40;;;;;;;1.60;1.40;;;19.80;69.00;;;20.52;35.81;97371.28;5146870;28;20326;-57
2022/05/30 10:15:27;;;;;;;1.98;1.50;;;19.30;76.90;;;20.37;32.92;97366.78;5153273;28;20205;-58
2022/05/30 10:18:24;;;;;;;2.17;1.52;;;19.00;69.40;;;20.12;34.18;97362.19;5131296;28;20657;-55
2022/05/30 10:21:22;;;;;;;1.75;1.63;;;18.70;69.70;;;19.58;35.60;97369.28;5126966;28;20224;-58
2022/05/30 10:30:20;;;;;;;2.28;1.63;;;18.10;73.50;;;19.09;35.42;97365.97;5116248;28;20625;-55
2022/05/30 10:33:08;;;;;;;2.15;1.80;;;18.10;73.10;;;19.15;37.58;97362.59;5112601;28;20248;-57
2022/05/30 10:35:54;;;;;;;2.15;1.63;;;17.90;77.80;;;18.94;38.51;97369.16;5141578;28;20196;-56
2022/05/30 10:38:51;;;;;;;1.80;1.70;;;17.80;77.00;;;19.04;35.21;97368.47;5138852;28;20220;-57
2022/05/30 10:41:36;;;;;;;2.13;1.75;;;17.90;72.10;;;18.83;36.68;97369.00;5125469;28;20283;-55
2022/05/30 10:44:15;;;;;;;2.30;1.55;;;17.70;74.60;;;18.99;36.75;97370.13;5141702;28;20640;-56
2022/05/30 10:46:58;;;;;;;2.25;1.48;;;17.80;74.90;;;19.18;35.22;97376.47;5117602;28;20325;-55
2022/05/30 10:49:36;;;;;;;1.65;1.55;;;18.00;72.50;;;19.30;34.24;97381.81;5138678;28;20258;-56
2022/05/30 10:52:22;;;;;;;1.88;1.42;;;18.20;70.10;;;19.51;33.45;97375.22;5145220;28;20622;-55
2022/05/30 10:55:02;;;;;;;1.70;1.60;;;18.40;69.00;;;19.59;33.11;97373.59;5138100;28;20190;-56
2022/05/30 10:57:41;;;;;;;2.47;1.70;;;18.50;67.80;;;19.72;34.11;97375.53;5177867;28;20625;-57
2022/05/30 11:00:17;;;;;;;2.20;1.80;;;18.80;70.20;;;19.89;32.98;97372.31;5164193;28;20200;-57
2022/05/30 11:02:59;;;;;;;2.05;1.70;;;18.90;67.70;;;19.80;33.13;97368.75;5156856;28;20243;-57
2022/05/30 11:05:42;;;;;;;1.92;1.60;;;18.90;68.00;;;19.44;33.55;97373.38;5176992;28;20266;-56
2022/05/30 11:08:25;;;;;;;2.75;2.00;;;18.80;68.10;;;19.41;33.50;97373.34;5143997;28;20311;-56
2022/05/30 11:11:06;;;;;;;1.52;1.42;;;18.70;68.00;;;19.56;32.85;97373.56;5124891;28;20208;-56
2022/05/30 11:13:51;;;;;;;1.80;1.70;;;18.70;67.20;;;19.68;32.37;97373.75;5157690;28;20278;-56
2022/05/30 11:16:36;;;;;;;2.38;1.92;;;18.90;65.90;;;19.91;33.70;97375.75;5161221;28;20231;-54
2022/05/30 11:19:17;;;;;;;2.40;1.75;;;19.10;68.20;;;20.03;31.98;97368.16;5188447;28;20554;-53
2022/05/30 11:21:59;;;;;;;1.88;1.67;;;19.40;65.30;;;19.75;32.27;97373.00;5159133;28;20255;-56
2022/05/30 11:24:33;;;;;;;1.52;1.42;;;19.10;65.80;;;19.71;33.75;97383.28;5124299;28;20240;-55